Time;durP1;ratioP1;P1;durP2;ratioP2;P2;SDS_P1;SDS_P2;PMS_P1;PMS_P2;Temp;Humidity;BMP_temperature;BMP_pressure;BME280_temperature;BME280_humidity;BME280_pressure;Samples;Min_cycle;Max_cycle;Signal;HPM_P1;HPM_P2
2023/07/22 00:02:16;;;;;;;3.57;3.00;;;14.00;99.90;;;;;;5144280;27;20209;-78
2023/07/22 00:04:44;;;;;;;5.93;3.00;;;14.00;99.90;;;;;;5146313;27;20560;-78
2023/07/22 00:07:12;;;;;;;4.80;2.83;;;13.90;99.90;;;;;;5138391;27;20214;-80
2023/07/22 00:09:41;;;;;;;7.50;3.27;;;13.90;99.90;;;;;;5132050;28;20256;-79
2023/07/22 00:12:10;;;;;;;4.27;3.00;;;13.80;99.90;;;;;;5134649;28;20229;-80
2023/07/22 00:14:41;;;;;;;5.80;2.73;;;13.80;99.90;;;;;;5129593;28;20210;-79
2023/07/22 00:17:11;;;;;;;7.90;3.07;;;13.70;99.90;;;;;;5127537;28;20208;-78
2023/07/22 00:19:39;;;;;;;5.03;3.23;;;13.70;99.90;;;;;;5129227;28;20202;-79
2023/07/22 00:22:07;;;;;;;5.30;2.97;;;13.60;99.90;;;;;;5126521;28;20217;-79
2023/07/22 00:24:35;;;;;;;7.63;3.40;;;13.60;99.90;;;;;;5130599;28;20198;-78
2023/07/22 00:27:06;;;;;;;6.23;2.87;;;13.60;99.90;;;;;;5126528;28;20202;-78
2023/07/22 00:29:34;;;;;;;3.57;3.10;;;13.50;99.90;;;;;;5122245;28;20217;-79
2023/07/22 00:32:02;;;;;;;5.77;2.90;;;13.50;99.90;;;;;;5122973;28;20279;-78
2023/07/22 00:34:32;;;;;;;6.23;3.30;;;13.50;99.90;;;;;;5122549;28;20225;-78
2023/07/22 00:37:00;;;;;;;7.57;3.17;;;13.40;99.90;;;;;;5115742;28;20253;-78
2023/07/22 00:39:28;;;;;;;5.80;3.00;;;13.40;99.90;;;;;;5116841;28;20253;-79
2023/07/22 00:41:56;;;;;;;4.33;2.80;;;13.30;99.90;;;;;;5117133;28;20243;-79
2023/07/22 00:44:24;;;;;;;4.97;3.10;;;13.30;99.90;;;;;;5117722;28;20228;-77
2023/07/22 00:46:55;;;;;;;4.10;2.80;;;13.30;99.90;;;;;;5115982;28;20267;-80
2023/07/22 00:49:24;;;;;;;3.30;2.80;;;13.30;99.90;;;;;;5117370;28;20263;-79
2023/07/22 00:51:54;;;;;;;6.03;3.40;;;13.30;99.90;;;;;;5116467;28;20226;-79
2023/07/22 00:54:23;;;;;;;5.20;3.03;;;13.30;99.90;;;;;;5119502;28;20206;-79
2023/07/22 00:56:51;;;;;;;4.17;2.90;;;13.30;99.90;;;;;;5118386;27;20267;-80
2023/07/22 00:59:20;;;;;;;3.57;3.00;;;13.30;99.90;;;;;;5136885;27;20659;-78
2023/07/22 01:01:48;;;;;;;6.80;3.10;;;13.20;99.90;;;;;;5137200;27;20214;-78
2023/07/22 01:04:19;;;;;;;7.13;3.37;;;13.20;99.90;;;;;;5136198;27;20247;-78
2023/07/22 01:06:49;;;;;;;8.50;3.40;;;13.20;99.90;;;;;;5123871;27;20236;-76
2023/07/22 01:09:18;;;;;;;8.03;3.57;;;13.10;99.90;;;;;;5116096;28;20289;-78
2023/07/22 01:11:46;;;;;;;4.77;3.17;;;13.10;99.90;;;;;;5116814;28;20210;-78
2023/07/22 01:14:14;;;;;;;6.53;3.67;;;13.10;99.90;;;;;;5116388;28;20736;-77
2023/07/22 01:16:44;;;;;;;6.03;3.10;;;13.10;99.90;;;;;;5116269;27;20634;-79
2023/07/22 01:19:18;;;;;;;5.57;3.27;;;13.10;99.90;;;;;;5116730;28;20210;-78
2023/07/22 01:21:49;;;;;;;6.20;3.30;;;13.10;99.90;;;;;;5116032;28;20210;-77
2023/07/22 01:24:18;;;;;;;4.47;3.37;;;13.00;99.90;;;;;;5116288;27;20238;-76
2023/07/22 01:26:47;;;;;;;4.53;3.13;;;13.00;99.90;;;;;;5116407;28;20217;-79
2023/07/22 01:29:15;;;;;;;4.97;3.20;;;13.00;99.90;;;;;;5117255;28;20206;-77
2023/07/22 01:31:48;;;;;;;4.03;2.90;;;13.00;99.90;;;;;;5116769;28;20220;-78
2023/07/22 01:34:16;;;;;;;5.57;3.03;;;13.00;99.90;;;;;;5127633;28;20230;-77
2023/07/22 01:36:47;;;;;;;9.10;3.17;;;13.00;99.90;;;;;;5125410;28;20213;-78
2023/07/22 01:39:15;;;;;;;3.97;3.10;;;12.90;99.90;;;;;;5117388;28;20273;-76
2023/07/22 01:41:45;;;;;;;4.43;3.53;;;12.80;99.90;;;;;;5110345;28;20543;-77
2023/07/22 01:44:13;;;;;;;3.73;2.80;;;12.90;99.90;;;;;;5118527;28;20612;-78
2023/07/22 01:46:42;;;;;;;4.77;3.13;;;12.80;99.90;;;;;;5121000;28;20597;-78
2023/07/22 01:49:12;;;;;;;4.83;3.13;;;12.80;99.90;;;;;;5121448;28;20210;-78
2023/07/22 01:51:41;;;;;;;8.13;3.27;;;12.70;99.90;;;;;;5121826;28;20551;-79
2023/07/22 01:54:10;;;;;;;4.43;3.10;;;12.70;99.90;;;;;;5118782;28;20283;-78
2023/07/22 01:56:38;;;;;;;8.37;3.40;;;12.70;99.90;;;;;;5118895;28;20667;-79
2023/07/22 01:59:09;;;;;;;4.17;3.10;;;12.70;99.90;;;;;;5127716;27;20220;-79
2023/07/22 02:01:37;;;;;;;7.20;3.50;;;12.70;99.90;;;;;;5140162;27;20205;-78
2023/07/22 02:04:06;;;;;;;5.60;3.53;;;12.70;99.90;;;;;;5140836;27;20250;-79
2023/07/22 02:06:35;;;;;;;6.23;3.80;;;12.70;99.90;;;;;;5140996;27;20193;-77
2023/07/22 02:09:08;;;;;;;6.67;4.00;;;12.70;99.90;;;;;;5138815;27;20213;-77
2023/07/22 02:11:37;;;;;;;6.33;4.07;;;12.70;99.90;;;;;;5145554;27;20202;-77
2023/07/22 02:14:06;;;;;;;7.57;3.80;;;12.70;99.90;;;;;;5137681;27;20449;-78
2023/07/22 02:16:37;;;;;;;8.07;3.97;;;12.70;99.90;;;;;;5135619;27;20225;-78
2023/07/22 02:19:06;;;;;;;8.17;3.60;;;12.70;99.90;;;;;;5138019;27;20552;-79
2023/07/22 02:21:34;;;;;;;7.43;3.70;;;12.70;99.90;;;;;;5140589;27;20550;-78
2023/07/22 02:24:03;;;;;;;6.23;3.70;;;12.70;99.90;;;;;;5143201;27;20229;-77
2023/07/22 02:26:31;;;;;;;6.17;3.63;;;12.70;99.90;;;;;;5117835;28;20259;-78
2023/07/22 02:28:59;;;;;;;7.97;4.23;;;12.60;99.90;;;;;;5125516;28;20230;-78
2023/07/22 02:31:28;;;;;;;9.80;4.07;;;12.60;99.90;;;;;;5121392;28;20214;-78
2023/07/22 02:33:57;;;;;;;5.60;3.43;;;12.60;99.90;;;;;;5121810;28;20271;-77
2023/07/22 02:36:26;;;;;;;5.37;3.90;;;12.50;99.90;;;;;;5119406;28;20206;-79
2023/07/22 02:38:54;;;;;;;7.67;3.90;;;12.50;99.90;;;;;;5118624;28;20210;-78
2023/07/22 02:41:22;;;;;;;5.70;3.60;;;12.40;99.90;;;;;;5117226;28;20199;-79
2023/07/22 02:43:50;;;;;;;5.60;3.73;;;12.40;99.90;;;;;;5115035;28;20266;-77
2023/07/22 02:46:19;;;;;;;5.77;3.73;;;12.30;99.90;;;;;;5118901;28;20237;-78
2023/07/22 02:48:47;;;;;;;6.73;4.10;;;12.40;99.90;;;;;;5125651;28;20617;-77
2023/07/22 02:51:16;;;;;;;6.40;4.00;;;12.40;99.90;;;;;;5142466;27;20242;-77
2023/07/22 02:53:46;;;;;;;8.03;4.17;;;12.40;99.90;;;;;;5135940;27;20226;-78
2023/07/22 02:56:15;;;;;;;7.60;4.30;;;12.40;99.90;;;;;;5141037;27;20206;-78
2023/07/22 02:58:43;;;;;;;7.97;3.73;;;12.40;99.90;;;;;;5138600;27;20201;-79
2023/07/22 03:01:11;;;;;;;6.23;4.30;;;12.30;99.90;;;;;;5137891;27;20274;-78
2023/07/22 03:03:40;;;;;;;6.27;4.27;;;12.40;99.90;;;;;;5136429;27;20258;-78
2023/07/22 03:06:09;;;;;;;7.43;3.97;;;12.30;99.90;;;;;;5138706;27;20667;-78
2023/07/22 03:08:39;;;;;;;7.53;4.40;;;12.30;99.90;;;;;;5119182;27;20214;-79
2023/07/22 03:11:07;;;;;;;8.30;4.20;;;12.30;99.90;;;;;;5115391;28;20566;-79
2023/07/22 03:13:35;;;;;;;5.80;4.03;;;12.20;99.90;;;;;;5116672;28;20248;-79
2023/07/22 03:16:04;;;;;;;8.27;4.30;;;12.20;99.90;;;;;;5118937;28;20213;-78
2023/07/22 03:18:33;;;;;;;5.30;4.20;;;12.20;99.90;;;;;;5118205;28;20214;-78
2023/07/22 03:21:01;;;;;;;7.83;4.07;;;12.30;99.90;;;;;;5123380;28;20631;-78
2023/07/22 03:23:29;;;;;;;5.53;4.80;;;12.30;99.90;;;;;;5119316;28;20251;-79
2023/07/22 03:25:58;;;;;;;5.70;4.30;;;12.30;99.90;;;;;;5125864;28;20210;-79
2023/07/22 03:28:27;;;;;;;8.60;4.50;;;12.20;99.90;;;;;;5129022;28;20210;-79
2023/07/22 03:30:55;;;;;;;6.17;4.50;;;12.20;99.90;;;;;;5141329;27;20231;-78
2023/07/22 03:33:24;;;;;;;5.90;4.47;;;12.20;99.90;;;;;;5153597;27;20226;-78
2023/07/22 03:35:52;;;;;;;7.13;4.30;;;12.10;99.90;;;;;;5157461;27;20219;-79
2023/07/22 03:38:21;;;;;;;7.57;4.90;;;12.10;99.90;;;;;;5152108;27;20210;-78
2023/07/22 03:40:50;;;;;;;9.37;4.60;;;12.10;99.90;;;;;;5138900;27;20265;-78
2023/07/22 03:43:20;;;;;;;9.77;4.93;;;12.10;99.90;;;;;;5154050;27;20222;-79
2023/07/22 03:45:48;;;;;;;9.23;4.80;;;12.10;99.90;;;;;;5157209;27;20197;-79
2023/07/22 03:48:20;;;;;;;8.87;5.30;;;12.00;99.90;;;;;;5156726;27;20204;-79
2023/07/22 03:50:48;;;;;;;7.90;5.03;;;12.00;99.90;;;;;;5156719;27;20254;-79
2023/07/22 03:53:27;;;;;;;7.93;5.20;;;12.00;99.90;;;;;;5153107;27;20190;-79
2023/07/22 03:55:55;;;;;;;9.67;5.07;;;11.90;99.90;;;;;;5149577;27;20663;-79
2023/07/22 03:58:25;;;;;;;8.77;5.13;;;12.10;99.90;;;;;;5146309;27;20206;-79
2023/07/22 04:00:53;;;;;;;9.73;4.70;;;12.10;99.90;;;;;;5144686;27;20718;-79
2023/07/22 04:03:22;;;;;;;9.37;5.10;;;12.10;99.90;;;;;;5141592;27;20672;-79
2023/07/22 04:05:55;;;;;;;6.73;4.70;;;12.10;99.90;;;;;;5139048;27;20270;-79
2023/07/22 04:08:23;;;;;;;8.67;4.73;;;12.10;99.90;;;;;;5121863;27;20668;-79
2023/07/22 04:10:55;;;;;;;8.23;5.40;;;12.10;99.90;;;;;;5116246;28;20545;-79
2023/07/22 04:13:26;;;;;;;7.13;4.80;;;12.10;99.90;;;;;;5114679;28;20239;-79
2023/07/22 04:15:55;;;;;;;7.93;4.70;;;12.20;99.90;;;;;;5115187;28;20216;-79
2023/07/22 04:18:23;;;;;;;6.17;4.87;;;12.20;99.90;;;;;;5114387;28;20206;-79
2023/07/22 04:20:57;;;;;;;7.13;4.53;;;12.20;99.90;;;;;;5114845;28;20652;-80
2023/07/22 04:23:25;;;;;;;6.47;5.07;;;12.30;99.90;;;;;;5114638;28;20229;-79
2023/07/22 04:25:53;;;;;;;9.77;4.83;;;12.30;99.90;;;;;;5114322;28;20225;-79
2023/07/22 04:28:22;;;;;;;5.67;4.43;;;12.30;99.90;;;;;;5119516;28;20233;-78
2023/07/22 04:30:58;;;;;;;8.43;4.80;;;12.40;99.90;;;;;;5124757;28;20213;-79
2023/07/22 04:33:27;;;;;;;7.90;5.03;;;12.40;99.90;;;;;;5119998;28;20258;-80
2023/07/22 04:36:00;;;;;;;7.60;4.97;;;12.50;99.90;;;;;;5123490;28;20691;-80
2023/07/22 04:38:29;;;;;;;6.00;5.03;;;12.50;99.90;;;;;;5125322;28;20206;-79
2023/07/22 04:40:57;;;;;;;10.03;5.47;;;12.50;99.90;;;;;;5119159;28;20205;-80
2023/07/22 04:43:25;;;;;;;8.23;4.73;;;12.60;99.90;;;;;;5117581;27;20235;-80
2023/07/22 04:45:54;;;;;;;6.90;5.03;;;12.70;99.90;;;;;;5118579;27;20202;-79
2023/07/22 04:48:24;;;;;;;7.33;5.20;;;12.70;99.90;;;;;;5138056;27;20205;-79
2023/07/22 04:50:52;;;;;;;6.73;5.13;;;12.80;99.90;;;;;;5138376;27;20296;-80
2023/07/22 04:53:22;;;;;;;6.97;4.60;;;12.90;99.90;;;;;;5137887;27;20212;-77
2023/07/22 04:55:50;;;;;;;6.63;4.67;;;13.00;99.90;;;;;;5137483;27;20267;-78
2023/07/22 04:58:20;;;;;;;5.30;4.47;;;13.10;99.90;;;;;;5137502;27;20257;-79
2023/07/22 05:00:49;;;;;;;8.67;4.50;;;13.20;99.90;;;;;;5136206;27;20218;-79
2023/07/22 05:03:18;;;;;;;5.13;4.03;;;13.30;99.90;;;;;;5137327;27;20201;-79
2023/07/22 05:05:49;;;;;;;6.23;4.50;;;13.40;99.90;;;;;;5137732;27;20205;-79
2023/07/22 05:08:17;;;;;;;7.77;4.83;;;13.50;99.90;;;;;;5137688;27;20206;-79
2023/07/22 05:10:45;;;;;;;5.67;3.90;;;13.60;99.90;;;;;;5127370;27;20206;-79
2023/07/22 05:13:14;;;;;;;4.57;4.13;;;13.80;99.90;;;;;;5137452;27;20209;-77
2023/07/22 05:15:42;;;;;;;4.57;4.03;;;14.00;99.90;;;;;;5125640;27;20218;-79
2023/07/22 05:18:10;;;;;;;6.03;4.30;;;14.10;99.90;;;;;;5137576;27;20546;-79
2023/07/22 05:20:39;;;;;;;6.30;4.00;;;14.30;99.90;;;;;;5137554;27;20258;-78
2023/07/22 05:23:09;;;;;;;6.63;4.00;;;14.50;99.90;;;;;;5136858;27;20229;-79
2023/07/22 05:25:38;;;;;;;5.07;4.00;;;14.60;99.90;;;;;;5117263;27;20221;-79
2023/07/22 05:28:06;;;;;;;9.27;4.10;;;14.80;99.90;;;;;;5117043;28;20218;-79
2023/07/22 05:30:34;;;;;;;8.60;4.13;;;14.80;99.90;;;;;;5117982;28;20219;-78
2023/07/22 05:33:03;;;;;;;6.37;3.70;;;14.90;99.90;;;;;;5118745;28;20220;-78
2023/07/22 05:35:32;;;;;;;5.80;3.93;;;15.10;99.90;;;;;;5118034;28;20695;-78
2023/07/22 05:38:00;;;;;;;5.87;3.80;;;15.30;99.90;;;;;;5126591;27;20262;-79
2023/07/22 05:40:30;;;;;;;6.50;3.70;;;15.40;99.90;;;;;;5120042;27;20221;-79
2023/07/22 05:42:58;;;;;;;6.43;3.80;;;15.50;99.90;;;;;;5124108;27;20255;-79
2023/07/22 05:45:26;;;;;;;4.63;3.40;;;15.60;99.90;;;;;;5123370;28;20239;-79
2023/07/22 05:47:54;;;;;;;4.57;3.37;;;15.80;99.90;;;;;;5123239;28;20210;-78
2023/07/22 05:50:24;;;;;;;6.13;3.73;;;16.00;99.90;;;;;;5122276;27;20236;-79
2023/07/22 05:52:52;;;;;;;6.63;3.80;;;16.00;99.90;;;;;;5120973;27;20201;-78
2023/07/22 05:55:20;;;;;;;4.67;3.43;;;16.00;99.90;;;;;;5130780;27;20243;-79
2023/07/22 05:57:50;;;;;;;6.30;3.40;;;16.00;99.90;;;;;;5122513;28;20206;-79
2023/07/22 06:00:18;;;;;;;4.97;3.57;;;16.20;99.90;;;;;;5117980;27;20210;-79
2023/07/22 06:02:46;;;;;;;6.63;3.57;;;16.30;99.90;;;;;;5131701;27;20197;-78
2023/07/22 06:05:15;;;;;;;5.97;3.47;;;16.60;99.90;;;;;;5144040;27;20209;-79
2023/07/22 06:07:44;;;;;;;5.00;3.10;;;16.90;99.90;;;;;;5149746;27;20291;-80
2023/07/22 06:10:13;;;;;;;6.07;3.33;;;17.60;99.90;;;;;;5152823;27;20213;-80
2023/07/22 06:12:41;;;;;;;6.30;3.17;;;18.10;99.90;;;;;;5151768;27;20201;-82
2023/07/22 06:15:11;;;;;;;6.00;3.90;;;18.40;99.90;;;;;;5148715;27;20217;-80
2023/07/22 06:17:39;;;;;;;5.80;3.33;;;18.70;99.90;;;;;;5142389;27;20289;-79
2023/07/22 06:20:09;;;;;;;4.30;3.60;;;19.10;99.90;;;;;;5141931;27;20628;-81
2023/07/22 06:22:37;;;;;;;8.17;3.97;;;19.20;99.90;;;;;;5143911;27;20225;-79
2023/07/22 06:25:06;;;;;;;5.30;3.80;;;19.10;99.90;;;;;;5144463;27;20202;-79
2023/07/22 06:27:35;;;;;;;5.03;3.50;;;18.90;99.90;;;;;;5145866;27;20663;-77
2023/07/22 06:30:04;;;;;;;6.87;3.80;;;18.80;99.90;;;;;;5139722;27;20209;-78
2023/07/22 06:32:34;;;;;;;4.80;3.70;;;18.70;99.90;;;;;;5138549;27;20217;-78
2023/07/22 06:35:03;;;;;;;4.23;3.23;;;18.60;99.90;;;;;;5134052;27;20217;-77
2023/07/22 06:37:31;;;;;;;4.83;3.27;;;18.40;99.90;;;;;;5134081;27;20273;-76
2023/07/22 06:39:59;;;;;;;4.83;3.20;;;18.10;99.90;;;;;;5124641;27;20206;-75
2023/07/22 06:42:27;;;;;;;5.40;3.10;;;18.10;99.90;;;;;;5140334;27;20240;-78
2023/07/22 06:44:55;;;;;;;4.80;3.30;;;18.40;99.90;;;;;;5145032;27;20209;-78
2023/07/22 06:47:23;;;;;;;5.33;3.20;;;19.10;99.90;;;;;;5123336;28;20206;-78
2023/07/22 06:49:53;;;;;;;4.73;2.93;;;20.00;99.90;;;;;;5124966;28;20228;-79
2023/07/22 06:52:21;;;;;;;5.77;2.90;;;20.80;99.90;;;;;;5135264;27;20206;-79
2023/07/22 06:54:49;;;;;;;3.03;2.47;;;21.90;99.90;;;;;;5138973;27;20240;-80
2023/07/22 06:57:18;;;;;;;5.57;2.40;;;21.90;99.90;;;;;;5140836;27;20213;-80
2023/07/22 06:59:46;;;;;;;5.50;2.10;;;21.30;99.90;;;;;;5142179;27;20214;-80
2023/07/22 07:02:15;;;;;;;2.90;2.03;;;22.20;99.90;;;;;;5145185;27;20270;-82
2023/07/22 07:04:43;;;;;;;2.80;2.27;;;23.20;99.90;;;;;;5143043;27;20206;-82
2023/07/22 07:07:14;;;;;;;3.57;2.13;;;24.20;96.70;;;;;;5143308;27;20667;-81
2023/07/22 07:09:43;;;;;;;2.10;1.90;;;24.90;90.90;;;;;;5144875;27;20594;-82
2023/07/22 07:12:11;;;;;;;3.00;2.13;;;25.50;84.30;;;;;;5128602;27;20278;-82
2023/07/22 07:14:39;;;;;;;4.05;1.90;;;25.60;82.00;;;;;;5121053;28;20202;-83
2023/07/22 07:17:07;;;;;;;5.05;1.92;;;26.10;80.30;;;;;;5122999;28;20252;-83
2023/07/22 07:19:35;;;;;;;2.78;2.30;;;26.90;77.90;;;;;;5129270;27;20206;-83
2023/07/22 07:22:04;;;;;;;4.15;2.30;;;27.20;72.30;;;;;;5143001;27;20715;-83
2023/07/22 07:24:33;;;;;;;3.13;2.30;;;27.40;71.40;;;;;;5136371;27;20209;-84
2023/07/22 07:27:02;;;;;;;3.08;2.40;;;27.80;68.30;;;;;;5138615;27;20205;-82
2023/07/22 07:29:30;;;;;;;3.72;1.92;;;27.80;64.20;;;;;;5136688;27;20202;-82
2023/07/22 07:32:01;;;;;;;2.17;2.00;;;28.00;65.10;;;;;;5141439;27;20240;-83
2023/07/22 07:34:29;;;;;;;2.05;1.85;;;28.30;57.90;;;;;;5141525;27;20225;-83
2023/07/22 07:36:57;;;;;;;3.38;1.75;;;28.20;58.30;;;;;;5128864;27;20237;-83
2023/07/22 07:39:27;;;;;;;4.55;1.80;;;28.40;54.20;;;;;;5119053;28;20209;-83
2023/07/22 07:41:57;;;;;;;1.95;1.65;;;28.10;55.10;;;;;;5116099;28;20238;-81
2023/07/22 07:44:25;;;;;;;2.63;1.80;;;28.30;56.00;;;;;;5112771;28;20598;-80
2023/07/22 07:46:53;;;;;;;3.72;1.90;;;28.20;54.50;;;;;;5113188;27;20654;-81
2023/07/22 07:49:21;;;;;;;2.63;2.05;;;28.00;53.90;;;;;;5113102;28;20205;-82
2023/07/22 07:51:49;;;;;;;2.45;1.80;;;28.20;55.60;;;;;;5131364;27;20236;-84
2023/07/22 07:54:17;;;;;;;4.25;1.90;;;27.90;56.00;;;;;;5130461;27;20214;-82
2023/07/22 07:56:46;;;;;;;3.30;2.10;;;28.90;53.00;;;;;;5113935;28;20230;-82
2023/07/22 07:59:16;;;;;;;2.45;1.88;;;28.60;50.40;;;;;;5112563;28;20213;-82
2023/07/22 08:01:44;;;;;;;4.35;1.90;;;28.50;51.80;;;;;;5111498;28;20217;-82
2023/07/22 08:04:12;;;;;;;2.45;1.83;;;27.00;55.10;;;;;;5109999;28;20206;-82
2023/07/22 08:06:40;;;;;;;2.38;1.80;;;26.60;55.00;;;;;;5109709;28;20206;-81
2023/07/22 08:09:10;;;;;;;2.10;1.75;;;26.70;56.60;;;;;;5111370;28;20234;-82
2023/07/22 08:11:39;;;;;;;2.00;1.75;;;27.70;53.90;;;;;;5110607;28;20267;-82
2023/07/22 08:14:08;;;;;;;2.28;1.90;;;28.10;54.50;;;;;;5111118;28;20218;-82
2023/07/22 08:16:38;;;;;;;3.30;1.65;;;29.00;50.80;;;;;;5112246;28;20589;-83
2023/07/22 08:19:06;;;;;;;1.67;1.58;;;29.00;51.10;;;;;;5112415;28;20754;-83
2023/07/22 08:21:34;;;;;;;4.60;2.00;;;29.70;48.60;;;;;;5112826;28;20202;-82
2023/07/22 08:24:03;;;;;;;1.70;1.60;;;30.70;46.70;;;;;;5112635;28;20229;-83
2023/07/22 08:26:31;;;;;;;1.95;1.77;;;30.40;44.40;;;;;;5112855;28;20316;-81
2023/07/22 08:29:00;;;;;;;2.90;1.90;;;30.60;43.30;;;;;;5112335;28;20255;-83
2023/07/22 08:31:28;;;;;;;3.13;1.80;;;30.20;44.70;;;;;;5112237;28;20236;-82
2023/07/22 08:33:57;;;;;;;2.70;2.20;;;29.90;44.10;;;;;;5112651;28;20300;-83
2023/07/22 08:36:26;;;;;;;2.88;2.10;;;30.10;43.20;;;;;;5112555;28;20222;-84
2023/07/22 08:38:54;;;;;;;3.83;2.20;;;30.40;42.30;;;;;;5114793;28;20251;-83
2023/07/22 08:41:25;;;;;;;2.45;1.90;;;30.50;41.60;;;;;;5114839;28;20620;-82
2023/07/22 08:43:56;;;;;;;2.33;2.00;;;30.40;41.70;;;;;;5115578;28;20259;-83
2023/07/22 08:46:28;;;;;;;4.20;2.10;;;30.30;41.40;;;;;;5112329;28;20221;-80
2023/07/22 08:49:01;;;;;;;3.03;1.55;;;30.10;41.00;;;;;;5118879;28;20241;-80
2023/07/22 08:51:32;;;;;;;2.20;1.80;;;29.90;40.00;;;;;;5134845;28;20205;-82
2023/07/22 08:54:02;;;;;;;3.95;1.90;;;30.30;39.90;;;;;;5133620;28;20201;-81
2023/07/22 08:56:39;;;;;;;2.42;1.90;;;30.00;40.80;;;;;;5133407;28;20213;-82
2023/07/22 08:59:08;;;;;;;2.60;1.73;;;30.30;39.20;;;;;;5133713;28;20258;-83
2023/07/22 09:01:36;;;;;;;2.25;2.00;;;30.40;38.70;;;;;;5134842;28;20786;-83
2023/07/22 09:04:07;;;;;;;3.92;1.75;;;29.50;39.30;;;;;;5135626;28;20205;-82
2023/07/22 09:06:36;;;;;;;2.63;1.80;;;29.50;39.10;;;;;;5132820;28;20228;-82
2023/07/22 09:09:07;;;;;;;2.15;1.95;;;29.40;40.50;;;;;;5136702;28;20241;-83
2023/07/22 09:11:36;;;;;;;2.22;1.83;;;30.00;39.30;;;;;;5134519;28;20196;-79
2023/07/22 09:14:05;;;;;;;2.17;1.90;;;30.40;39.90;;;;;;5135947;27;20659;-80
2023/07/22 09:16:33;;;;;;;2.35;1.77;;;30.40;37.70;;;;;;5136481;27;20202;-82
2023/07/22 09:19:06;;;;;;;2.83;1.88;;;30.90;38.80;;;;;;5136920;27;20227;-79
2023/07/22 09:21:35;;;;;;;3.53;1.90;;;30.60;37.60;;;;;;5136429;27;20294;-83
2023/07/22 09:24:21;;;;;;;2.80;1.90;;;30.60;38.80;;;;;;5136475;27;20415;-84
2023/07/22 09:26:50;;;;;;;3.13;1.98;;;30.70;38.50;;;;;;5136504;27;20649;-82
2023/07/22 09:29:18;;;;;;;3.25;2.00;;;31.10;35.80;;;;;;5136221;27;20206;-82
2023/07/22 09:31:51;;;;;;;2.35;2.00;;;30.90;37.00;;;;;;5136880;27;20217;-83
2023/07/22 09:34:22;;;;;;;3.60;1.60;;;31.10;37.90;;;;;;5136730;27;20219;-83
2023/07/22 09:36:52;;;;;;;2.78;1.75;;;30.70;37.50;;;;;;5122552;27;20226;-80
2023/07/22 09:39:20;;;;;;;4.40;1.83;;;31.30;36.60;;;;;;5115588;28;20737;-83
2023/07/22 09:41:48;;;;;;;3.88;1.70;;;31.10;36.70;;;;;;5115617;28;20233;-81
2023/07/22 09:44:17;;;;;;;2.28;1.77;;;31.20;38.40;;;;;;5115705;28;20202;-83
2023/07/22 09:46:49;;;;;;;2.40;1.70;;;31.50;37.20;;;;;;5115538;28;20226;-78
2023/07/22 09:49:21;;;;;;;3.67;1.83;;;31.90;32.70;;;;;;5115665;28;20206;-82
2023/07/22 09:51:52;;;;;;;2.30;1.70;;;31.90;35.10;;;;;;5115732;28;20206;-84
2023/07/22 09:54:30;;;;;;;2.13;1.70;;;30.00;32.90;;;;;;5115950;28;20684;-82
2023/07/22 09:56:59;;;;;;;2.97;1.77;;;29.60;37.60;;;;;;5116745;28;20368;-82
2023/07/22 09:59:30;;;;;;;2.72;1.80;;;30.50;34.50;;;;;;5117178;28;20206;-82
2023/07/22 10:02:02;;;;;;;1.98;1.50;;;30.60;34.10;;;;;;5115772;28;20281;-83
2023/07/22 10:04:35;;;;;;;2.42;1.60;;;31.50;35.80;;;;;;5115697;28;20593;-83
2023/07/22 10:07:06;;;;;;;1.90;1.60;;;31.90;34.70;;;;;;5115998;28;20230;-85
2023/07/22 10:09:37;;;;;;;2.50;1.75;;;32.30;32.30;;;;;;5116217;28;20639;-81
2023/07/22 10:12:07;;;;;;;3.35;1.90;;;33.20;30.80;;;;;;5116307;28;20218;-80
2023/07/22 10:14:36;;;;;;;3.67;1.80;;;32.80;31.30;;;;;;5119860;28;20758;-80
2023/07/22 10:17:07;;;;;;;2.88;1.90;;;31.10;31.00;;;;;;5116343;28;20289;-82
2023/07/22 10:19:37;;;;;;;2.80;1.73;;;29.90;32.90;;;;;;5117118;28;20198;-82
2023/07/22 10:22:07;;;;;;;2.72;1.70;;;30.20;33.20;;;;;;5115632;28;20255;-79
2023/07/22 10:24:37;;;;;;;2.25;1.70;;;30.50;35.00;;;;;;5116209;28;20650;-82
2023/07/22 10:27:07;;;;;;;4.30;1.58;;;30.90;34.70;;;;;;5115392;28;20334;-84
2023/07/22 10:29:35;;;;;;;2.45;1.60;;;31.10;31.90;;;;;;5116291;28;20236;-84
2023/07/22 10:32:05;;;;;;;1.60;1.50;;;31.80;32.00;;;;;;5114983;28;20220;-84
2023/07/22 10:34:33;;;;;;;1.77;1.52;;;31.80;30.50;;;;;;5114981;28;20297;-83
2023/07/22 10:37:04;;;;;;;1.88;1.67;;;31.90;30.50;;;;;;5129203;27;20226;-80
2023/07/22 10:39:32;;;;;;;4.85;1.70;;;32.80;30.50;;;;;;5135464;27;20210;-81
2023/07/22 10:42:04;;;;;;;2.13;1.65;;;33.60;28.70;;;;;;5135295;27;20210;-82
2023/07/22 10:44:33;;;;;;;2.13;1.80;;;32.90;27.60;;;;;;5135696;27;20219;-82
2023/07/22 10:47:03;;;;;;;2.35;1.60;;;32.40;27.20;;;;;;5135496;27;20226;-80
2023/07/22 10:49:44;;;;;;;1.48;1.38;;;30.40;30.00;;;;;;5136353;27;20212;-81
2023/07/22 10:52:15;;;;;;;5.32;1.67;;;29.30;31.30;;;;;;5135135;27;20652;-79
2023/07/22 10:54:43;;;;;;;1.65;1.55;;;28.80;34.20;;;;;;5132637;27;20701;-80
2023/07/22 10:57:30;;;;;;;2.47;1.70;;;28.90;33.70;;;;;;5114414;28;20206;-83
2023/07/22 10:59:58;;;;;;;1.70;1.55;;;28.50;35.80;;;;;;5114274;28;20251;-81
2023/07/22 11:02:28;;;;;;;1.90;1.70;;;28.90;36.10;;;;;;5115234;28;20210;-82
2023/07/22 11:04:59;;;;;;;3.63;2.00;;;28.60;35.70;;;;;;5123490;28;20297;-81
2023/07/22 11:07:34;;;;;;;2.30;1.58;;;27.90;37.70;;;;;;5114436;28;20222;-78
2023/07/22 11:10:16;;;;;;;3.42;1.67;;;26.20;38.20;;;;;;5114306;28;20205;-78
2023/07/22 11:12:46;;;;;;;5.63;1.70;;;25.60;41.30;;;;;;5113472;28;20234;-79
2023/07/22 11:15:17;;;;;;;3.50;1.70;;;25.40;41.60;;;;;;5114308;28;20244;-77
2023/07/22 11:17:45;;;;;;;3.53;1.73;;;25.20;41.20;;;;;;5114257;28;20682;-80
2023/07/22 11:20:13;;;;;;;3.97;1.97;;;26.00;43.30;;;;;;5114144;28;20259;-82
2023/07/22 11:22:44;;;;;;;6.70;1.73;;;26.80;40.70;;;;;;5113913;28;20213;-80
2023/07/22 11:25:18;;;;;;;3.03;1.73;;;26.80;40.40;;;;;;5113746;28;20210;-78
2023/07/22 11:27:47;;;;;;;3.60;1.80;;;26.70;40.50;;;;;;5114057;28;20225;-78
2023/07/22 11:30:15;;;;;;;3.40;1.80;;;26.70;41.10;;;;;;5113689;28;20207;-79
2023/07/22 11:32:44;;;;;;;2.23;1.73;;;26.80;40.80;;;;;;5113218;28;20220;-77
2023/07/22 11:35:17;;;;;;;3.77;1.63;;;26.00;40.50;;;;;;5113579;28;20206;-77
2023/07/22 11:37:47;;;;;;;1.80;1.70;;;26.70;40.60;;;;;;5113427;28;20226;-77
2023/07/22 11:40:15;;;;;;;2.03;1.67;;;27.00;41.50;;;;;;5113990;28;20230;-77
2023/07/22 11:42:47;;;;;;;3.40;1.77;;;26.70;38.20;;;;;;5114378;28;20284;-78
2023/07/22 11:45:15;;;;;;;2.47;1.70;;;26.40;39.60;;;;;;5127524;27;20208;-78
2023/07/22 11:47:44;;;;;;;3.27;1.60;;;26.60;41.40;;;;;;5136933;27;20205;-78
2023/07/22 11:50:12;;;;;;;2.90;1.80;;;27.20;40.50;;;;;;5136094;27;20209;-80
2023/07/22 11:52:41;;;;;;;1.80;1.53;;;27.00;39.90;;;;;;5135091;27;20209;-80
2023/07/22 11:55:12;;;;;;;2.07;1.30;;;27.30;36.60;;;;;;5128739;27;20198;-77
2023/07/22 11:57:54;;;;;;;2.37;1.63;;;27.90;39.30;;;;;;5114125;28;20274;-78
2023/07/22 12:00:23;;;;;;;1.60;1.50;;;28.00;38.10;;;;;;5113972;28;20244;-79
2023/07/22 12:02:57;;;;;;;2.00;1.37;;;27.10;36.90;;;;;;5131248;27;20216;-78
2023/07/22 12:05:25;;;;;;;3.37;1.60;;;26.90;39.00;;;;;;5134685;27;20201;-77
2023/07/22 12:07:53;;;;;;;2.27;1.60;;;26.60;38.80;;;;;;5133622;27;20211;-78
2023/07/22 12:10:25;;;;;;;1.60;1.40;;;26.40;39.80;;;;;;5117816;28;20214;-80
2023/07/22 12:12:54;;;;;;;3.23;1.93;;;26.90;39.80;;;;;;5113067;28;20216;-78
2023/07/22 12:15:24;;;;;;;2.70;1.70;;;27.10;39.20;;;;;;5113318;28;20210;-79
2023/07/22 12:17:54;;;;;;;1.73;1.63;;;26.90;37.90;;;;;;5114673;28;20296;-80
2023/07/22 12:20:25;;;;;;;2.13;1.70;;;26.50;40.70;;;;;;5117257;28;20186;-77
2023/07/22 12:22:54;;;;;;;1.90;1.60;;;26.30;39.20;;;;;;5121121;28;20202;-76
2023/07/22 12:25:24;;;;;;;2.03;1.70;;;25.80;38.00;;;;;;5118260;28;20213;-76
2023/07/22 12:27:52;;;;;;;2.83;1.50;;;25.90;37.60;;;;;;5113791;28;20656;-79
2023/07/22 12:30:21;;;;;;;1.83;1.60;;;25.80;40.10;;;;;;5115011;28;20201;-79
2023/07/22 12:32:49;;;;;;;2.37;1.50;;;26.70;40.40;;;;;;5120006;28;20210;-81
2023/07/22 12:35:17;;;;;;;2.63;1.90;;;27.20;37.40;;;;;;5113712;28;20293;-78
2023/07/22 12:37:46;;;;;;;2.37;1.53;;;27.80;35.80;;;;;;5113354;28;20222;-79
2023/07/22 12:40:14;;;;;;;1.57;1.47;;;28.00;36.10;;;;;;5113477;28;20206;-79
2023/07/22 12:42:45;;;;;;;3.07;1.50;;;28.10;36.00;;;;;;5114121;28;20210;-82
2023/07/22 12:45:14;;;;;;;1.50;1.37;;;28.00;32.70;;;;;;5135970;28;20234;-80
2023/07/22 12:47:42;;;;;;;1.87;1.40;;;28.10;34.00;;;;;;5127225;27;20254;-82
2023/07/22 12:50:11;;;;;;;1.60;1.50;;;28.30;34.30;;;;;;5134581;27;21551;-79
2023/07/22 12:52:39;;;;;;;2.63;1.77;;;27.70;33.00;;;;;;5117107;28;20544;-80
2023/07/22 12:55:08;;;;;;;3.40;1.60;;;27.10;34.50;;;;;;5116958;28;20289;-75
2023/07/22 12:57:36;;;;;;;2.33;1.60;;;26.70;36.60;;;;;;5117331;28;20206;-76
2023/07/22 13:00:09;;;;;;;1.90;1.50;;;26.70;34.60;;;;;;5116573;28;20206;-79